Time;durP1;ratioP1;P1;durP2;ratioP2;P2;SDS_P1;SDS_P2;PMS_P1;PMS_P2;Temp;Humidity;BMP_temperature;BMP_pressure;BME280_temperature;BME280_humidity;BME280_pressure;Samples;Min_cycle;Max_cycle;Signal;HPM_P1;HPM_P2
2022/02/04 00:20:00;;;;;;;49.92;36.67;;;7.00;99.90;;;;;;6248795;22;20034;-81
2022/02/04 00:23:43;;;;;;;42.50;32.63;;;7.00;99.90;;;;;;6190114;22;20112;-82
2022/02/04 00:31:39;;;;;;;44.58;32.38;;;7.10;99.90;;;;;;6275781;22;20022;-88
2022/02/04 00:34:12;;;;;;;44.65;32.92;;;7.10;99.90;;;;;;6228210;22;20050;-88
2022/02/04 00:37:28;;;;;;;40.85;31.08;;;7.10;99.90;;;;;;6248279;22;20444;-88
2022/02/04 00:39:38;;;;;;;42.50;31.55;;;7.10;99.90;;;;;;6261472;22;20019;-88
2022/02/04 00:42:08;;;;;;;41.90;30.83;;;7.00;99.90;;;;;;6226555;22;20019;-85
2022/02/04 00:44:37;;;;;;;40.10;30.88;;;7.00;99.90;;;;;;6247673;22;20016;-81
2022/02/04 00:47:13;;;;;;;38.78;30.27;;;7.00;99.90;;;;;;6248855;22;20804;-81
2022/02/04 00:50:01;;;;;;;42.00;31.02;;;7.00;99.90;;;;;;6224823;22;20019;-81
2022/02/04 00:52:41;;;;;;;40.75;30.67;;;7.00;99.90;;;;;;6252282;22;20019;-80
2022/02/04 00:55:26;;;;;;;36.25;27.95;;;7.00;99.90;;;;;;6252462;22;20016;-80
2022/02/04 01:06:29;;;;;;;37.75;28.50;;;6.90;99.90;;;;;;6226483;22;20026;-81
2022/02/04 01:28:24;;;;;;;42.78;30.85;;;6.70;99.90;;;;;;6258088;22;20026;-89
2022/02/04 01:30:50;;;;;;;39.85;29.00;;;6.70;99.90;;;;;;6253291;22;20110;-87
2022/02/04 01:33:16;;;;;;;40.13;29.45;;;6.80;99.90;;;;;;6252278;22;20043;-87
2022/02/04 01:35:42;;;;;;;39.00;29.83;;;6.90;99.90;;;;;;6225975;22;20533;-88
2022/02/04 01:38:08;;;;;;;39.08;28.13;;;6.80;99.90;;;;;;6250514;22;20075;-87
2022/02/04 01:40:34;;;;;;;37.38;28.77;;;6.80;99.90;;;;;;6253307;22;20447;-87
2022/02/04 01:43:01;;;;;;;41.63;28.70;;;6.90;99.90;;;;;;6254090;22;20019;-86
2022/02/04 01:45:30;;;;;;;38.90;28.20;;;6.90;99.90;;;;;;6253984;22;20031;-87
2022/02/04 01:47:56;;;;;;;37.92;27.85;;;6.90;99.90;;;;;;6278569;22;20022;-88
2022/02/04 01:50:30;;;;;;;36.70;27.73;;;6.90;99.90;;;;;;6254315;22;20018;-87
2022/02/04 01:52:58;;;;;;;40.13;29.17;;;6.90;99.90;;;;;;6252150;22;20022;-86
2022/02/04 01:55:24;;;;;;;40.58;28.85;;;7.00;99.90;;;;;;6277809;22;20034;-87
2022/02/04 01:57:50;;;;;;;39.42;28.27;;;6.90;99.90;;;;;;6225945;22;20061;-88
2022/02/04 02:00:17;;;;;;;38.00;27.33;;;7.00;99.90;;;;;;6277273;22;20439;-87
2022/02/04 02:02:43;;;;;;;36.08;27.88;;;7.00;99.90;;;;;;6251327;22;20098;-87
2022/02/04 02:05:12;;;;;;;37.47;27.00;;;7.00;99.90;;;;;;6247529;22;20016;-88
2022/02/04 02:08:03;;;;;;;38.90;28.88;;;7.00;99.90;;;;;;6274940;22;20068;-87
2022/02/04 02:10:30;;;;;;;37.67;29.15;;;7.00;99.90;;;;;;6251031;22;20027;-87
2022/02/04 02:13:47;;;;;;;36.33;27.55;;;7.00;99.90;;;;;;6226108;22;20058;-88
2022/02/04 02:43:00;;;;;;;40.72;29.67;;;6.90;99.90;;;;;;6277657;22;20019;-88
2022/02/04 02:45:36;;;;;;;44.88;30.65;;;7.00;99.90;;;;;;6254647;22;20113;-88
2022/02/04 02:48:18;;;;;;;41.85;30.08;;;7.00;99.90;;;;;;6254181;22;20097;-87
2022/02/04 02:58:33;;;;;;;43.80;30.83;;;7.00;99.90;;;;;;6251152;22;20023;-87
2022/02/04 03:01:18;;;;;;;45.80;30.75;;;7.00;99.90;;;;;;6275685;22;20019;-87
2022/02/04 03:03:51;;;;;;;45.00;32.20;;;7.10;99.90;;;;;;6249775;22;20011;-88
2022/02/04 03:06:16;;;;;;;47.47;33.05;;;7.10;99.90;;;;;;6252030;22;20023;-87
2022/02/04 03:08:42;;;;;;;45.88;33.50;;;7.10;99.90;;;;;;6223924;22;20015;-87
2022/02/04 03:11:08;;;;;;;45.97;33.17;;;7.10;99.90;;;;;;6249130;22;20030;-88
2022/02/04 03:13:37;;;;;;;46.05;33.90;;;7.10;99.90;;;;;;6248482;22;20018;-89
2022/02/04 03:16:07;;;;;;;45.97;31.35;;;7.10;99.90;;;;;;6248750;22;20023;-88
2022/02/04 03:18:39;;;;;;;;;;;7.20;99.90;;;;;;6271755;22;20019;-88
2022/02/04 03:21:15;;;;;;;48.50;35.42;;;7.20;99.90;;;;;;6249325;22;19937;-88
2022/02/04 03:23:45;;;;;;;47.88;33.97;;;7.20;99.90;;;;;;6227102;22;20020;-87
2022/02/04 03:26:25;;;;;;;45.63;33.03;;;7.20;99.90;;;;;;6251712;22;20012;-89
2022/02/04 03:28:51;;;;;;;46.35;33.78;;;7.20;99.90;;;;;;6249984;22;20015;-89
2022/02/04 03:31:17;;;;;;;44.15;33.22;;;7.30;99.90;;;;;;6226221;22;20019;-87
2022/02/04 03:33:44;;;;;;;43.67;33.65;;;7.30;99.90;;;;;;6250322;22;20026;-88
2022/02/04 03:36:10;;;;;;;44.28;32.53;;;7.30;99.90;;;;;;6251831;22;20065;-88
2022/02/04 03:38:36;;;;;;;44.05;32.95;;;7.30;99.90;;;;;;6224838;22;20015;-88
2022/02/04 03:41:03;;;;;;;44.30;34.03;;;7.30;99.90;;;;;;6224163;22;20023;-88
2022/02/04 03:43:29;;;;;;;43.38;32.65;;;7.40;99.90;;;;;;6250657;22;20015;-89
2022/02/04 03:45:54;;;;;;;43.72;32.50;;;7.30;99.90;;;;;;6220886;22;20043;-87
2022/02/04 03:48:20;;;;;;;44.75;34.10;;;7.40;99.90;;;;;;6223282;22;20023;-88
2022/02/04 03:50:46;;;;;;;44.35;34.35;;;7.40;99.90;;;;;;6248718;22;20011;-87
2022/02/04 03:53:14;;;;;;;43.75;32.88;;;7.40;99.90;;;;;;6225111;22;20129;-88
2022/02/04 03:55:40;;;;;;;42.45;32.78;;;7.40;99.90;;;;;;6275678;22;20016;-88
2022/02/04 03:58:05;;;;;;;40.30;32.72;;;7.50;99.90;;;;;;6250589;22;20015;-87
2022/02/04 04:00:32;;;;;;;40.60;31.75;;;7.50;99.90;;;;;;6253791;22;20070;-87
2022/02/04 04:02:58;;;;;;;39.17;31.63;;;7.50;99.90;;;;;;6226913;22;20019;-86
2022/02/04 04:05:24;;;;;;;41.63;32.47;;;7.50;99.90;;;;;;6230278;22;20061;-87
2022/02/04 04:07:50;;;;;;;39.22;31.38;;;7.50;99.90;;;;;;6253051;22;20023;-88
2022/02/04 04:10:21;;;;;;;41.20;32.10;;;7.60;99.90;;;;;;6227510;22;20026;-88
2022/02/04 04:12:47;;;;;;;39.33;31.40;;;7.50;99.90;;;;;;6252913;22;20019;-88
2022/02/04 04:15:13;;;;;;;40.28;31.38;;;7.50;99.90;;;;;;6249355;22;20045;-88
2022/02/04 04:17:42;;;;;;;38.63;30.20;;;7.50;99.90;;;;;;6249687;22;20015;-86
2022/02/04 04:20:13;;;;;;;39.92;30.88;;;7.50;99.90;;;;;;6250938;22;20357;-86
2022/02/04 04:22:44;;;;;;;37.90;30.98;;;7.50;99.90;;;;;;6277143;22;20050;-86
2022/02/04 04:25:11;;;;;;;;;;;7.50;99.90;;;;;;6275570;22;20022;-88
2022/02/04 04:27:40;;;;;;;36.55;28.85;;;7.60;99.90;;;;;;6251428;22;19915;-87
2022/02/04 04:30:08;;;;;;;37.90;30.50;;;7.50;99.90;;;;;;6225151;22;20090;-85
2022/02/04 04:32:33;;;;;;;37.95;30.83;;;7.60;99.90;;;;;;6250456;22;20015;-88
2022/02/04 04:34:59;;;;;;;36.60;30.23;;;7.60;99.90;;;;;;6250175;22;20098;-88
2022/02/04 04:37:28;;;;;;;34.88;28.73;;;7.60;99.90;;;;;;6276400;22;20088;-87
2022/02/04 05:29:51;;;;;;;31.08;27.73;;;7.80;99.90;;;;;;6251623;22;20027;-83
2022/02/04 05:36:10;;;;;;;33.53;28.35;;;7.80;99.90;;;;;;6174644;23;20025;-82
2022/02/04 05:38:37;;;;;;;30.88;27.38;;;7.80;99.90;;;;;;6156531;23;20012;-85
2022/02/04 05:41:06;;;;;;;32.10;27.73;;;7.80;99.90;;;;;;6169980;22;20019;-84
2022/02/04 05:43:35;;;;;;;30.92;25.65;;;7.80;99.90;;;;;;6248493;22;20019;-81
2022/02/04 05:46:06;;;;;;;28.73;25.65;;;7.80;99.90;;;;;;6248999;22;20011;-83
2022/02/04 05:48:35;;;;;;;30.23;25.50;;;7.90;99.90;;;;;;6250734;22;20030;-83
2022/02/04 05:56:48;;;;;;;28.42;22.60;;;7.90;99.90;;;;;;6249743;22;20522;-84
2022/02/04 06:22:55;;;;;;;26.77;21.05;;;7.90;99.90;;;;;;6275594;22;20074;-82
2022/02/04 06:25:23;;;;;;;24.25;19.58;;;8.00;99.90;;;;;;6224932;22;20026;-83
2022/02/04 06:27:49;;;;;;;24.40;20.52;;;7.90;99.90;;;;;;6224195;22;20023;-83
2022/02/04 06:30:16;;;;;;;23.45;20.85;;;7.90;99.90;;;;;;6224430;22;20487;-81
2022/02/04 06:32:41;;;;;;;24.35;20.60;;;7.90;99.90;;;;;;6250608;22;20045;-82
2022/02/04 06:35:10;;;;;;;24.85;21.15;;;7.90;99.90;;;;;;6224561;22;20038;-83
2022/02/04 06:37:37;;;;;;;26.02;21.42;;;8.00;99.90;;;;;;6276119;22;20047;-83
2022/02/04 06:40:04;;;;;;;23.00;19.50;;;7.90;99.90;;;;;;6223837;22;20023;-83
2022/02/04 06:42:30;;;;;;;24.80;20.08;;;7.90;99.90;;;;;;6275939;22;20034;-82
2022/02/04 06:44:57;;;;;;;24.75;19.52;;;8.00;99.90;;;;;;6249308;22;20011;-82
2022/02/04 06:47:23;;;;;;;24.88;18.45;;;8.00;99.90;;;;;;6225434;22;20589;-83
2022/02/04 06:49:49;;;;;;;22.50;18.05;;;8.00;99.90;;;;;;6224412;22;20631;-82
2022/02/04 06:52:15;;;;;;;22.25;18.65;;;8.00;99.90;;;;;;6275878;22;20455;-84
2022/02/04 06:54:42;;;;;;;20.52;17.73;;;8.00;99.90;;;;;;6250995;22;20061;-82
2022/02/04 06:57:08;;;;;;;23.05;18.70;;;8.00;99.90;;;;;;6249550;22;20456;-82
2022/02/04 06:59:36;;;;;;;23.38;18.98;;;8.10;99.90;;;;;;6249510;22;20078;-83
2022/02/04 07:02:03;;;;;;;21.70;18.17;;;8.00;99.90;;;;;;6248746;22;20023;-84
2022/02/04 07:04:32;;;;;;;23.38;18.00;;;8.00;99.90;;;;;;6249889;22;20015;-82
2022/02/04 07:07:04;;;;;;;19.52;17.30;;;8.10;99.90;;;;;;6224687;22;20106;-83
2022/02/04 07:12:31;;;;;;;20.83;17.65;;;8.00;99.90;;;;;;6271565;22;20048;-84
2022/02/04 07:17:57;;;;;;;20.98;17.70;;;8.00;99.90;;;;;;6248081;22;20023;-83
2022/02/04 07:20:26;;;;;;;20.38;18.10;;;8.00;99.90;;;;;;6229899;22;20022;-83
2022/02/04 07:22:52;;;;;;;19.25;17.08;;;8.00;99.90;;;;;;6245884;22;20691;-83
2022/02/04 07:25:18;;;;;;;19.45;16.45;;;8.00;99.90;;;;;;6240326;22;20388;-84
2022/02/04 07:27:45;;;;;;;20.05;17.75;;;8.00;99.90;;;;;;6217029;22;20015;-82
2022/02/04 07:30:15;;;;;;;18.90;16.33;;;8.00;99.90;;;;;;6264075;22;20019;-82
2022/02/04 07:32:52;;;;;;;17.73;15.73;;;8.00;99.90;;;;;;6215257;22;20081;-82
2022/02/04 07:43:12;;;;;;;17.27;15.48;;;8.00;99.90;;;;;;6246217;22;20089;-82
2022/02/04 07:45:40;;;;;;;17.77;15.15;;;8.00;99.90;;;;;;6216449;22;20023;-82
2022/02/04 07:48:06;;;;;;;16.77;15.07;;;7.90;99.90;;;;;;6240334;22;20019;-81
2022/02/04 07:50:33;;;;;;;17.67;15.25;;;8.00;99.90;;;;;;6218433;22;20153;-82
2022/02/04 07:52:59;;;;;;;16.83;15.13;;;8.00;99.90;;;;;;6217100;22;20172;-82
2022/02/04 07:55:25;;;;;;;17.05;13.75;;;8.00;99.90;;;;;;6242856;22;20484;-79
2022/02/04 07:57:52;;;;;;;15.80;13.38;;;8.00;99.90;;;;;;6216630;22;20051;-83
2022/02/04 08:00:19;;;;;;;16.88;14.48;;;8.00;99.90;;;;;;6240007;22;20019;-82
2022/02/04 08:02:46;;;;;;;15.45;13.95;;;8.10;99.90;;;;;;6216088;22;20016;-82
2022/02/04 08:05:16;;;;;;;15.95;14.23;;;8.00;99.90;;;;;;6242372;22;20318;-82
2022/02/04 08:08:14;;;;;;;14.77;13.27;;;8.10;99.90;;;;;;6218035;22;20047;-82
2022/02/04 08:24:37;;;;;;;13.70;11.27;;;8.10;99.90;;;;;;6245166;22;20020;-82
2022/02/04 08:26:44;;;;;;;13.63;11.75;;;8.20;99.90;;;;;;6253399;22;20023;-82
2022/02/04 08:29:28;;;;;;;13.90;11.68;;;8.20;99.90;;;;;;6244871;22;20034;-83
2022/02/04 08:32:13;;;;;;;13.33;11.40;;;8.20;99.90;;;;;;6241796;22;20344;-82
2022/02/04 08:38:18;;;;;;;14.20;12.02;;;8.20;99.90;;;;;;6244855;22;20085;-83
2022/02/04 08:56:10;;;;;;;14.38;11.65;;;8.30;99.90;;;;;;6264993;22;20026;-83
2022/02/04 09:01:20;;;;;;;12.18;10.95;;;8.40;99.90;;;;;;6266824;22;20024;-83
2022/02/04 09:06:17;;;;;;;14.60;11.95;;;8.30;99.90;;;;;;6240290;22;20028;-83
2022/02/04 09:08:54;;;;;;;13.75;12.43;;;8.40;99.90;;;;;;6214524;22;20074;-83
2022/02/04 09:12:03;;;;;;;14.73;12.98;;;8.40;99.90;;;;;;6240984;22;20074;-83
2022/02/04 09:19:29;;;;;;;13.95;12.45;;;8.40;99.90;;;;;;6266619;22;20108;-83
2022/02/04 09:24:24;;;;;;;14.05;12.38;;;8.50;99.90;;;;;;6268803;22;20099;-84
2022/02/04 09:26:55;;;;;;;13.88;12.48;;;8.50;99.90;;;;;;6266981;22;20106;-84
2022/02/04 09:29:23;;;;;;;;;;;8.50;99.90;;;;;;6242780;22;20124;-84
2022/02/04 09:31:51;;;;;;;14.68;12.25;;;8.50;99.90;;;;;;6242244;22;19939;-84
2022/02/04 09:34:17;;;;;;;15.27;13.80;;;8.60;99.90;;;;;;6244915;22;20062;-83
2022/02/04 09:36:43;;;;;;;13.30;11.82;;;8.60;99.90;;;;;;6242623;22;20020;-83
2022/02/04 09:39:09;;;;;;;14.30;12.90;;;8.60;99.90;;;;;;6218528;22;20019;-84
2022/02/04 09:41:36;;;;;;;14.75;13.05;;;8.60;99.90;;;;;;6216628;22;20016;-84
2022/02/04 09:44:03;;;;;;;15.48;13.88;;;8.60;99.90;;;;;;6240337;22;20019;-84
2022/02/04 09:46:34;;;;;;;14.48;12.98;;;8.60;99.90;;;;;;6240595;22;20072;-83
2022/02/04 09:49:00;;;;;;;14.15;12.55;;;8.60;99.90;;;;;;6216118;22;20420;-82
2022/02/04 09:51:55;;;;;;;15.00;12.73;;;8.60;99.90;;;;;;6215926;22;20019;-82
2022/02/04 10:17:15;;;;;;;14.40;12.90;;;9.00;99.90;;;;;;6266159;22;20051;-80
2022/02/04 10:22:18;;;;;;;12.80;11.15;;;9.10;99.90;;;;;;6266646;22;20356;-83
2022/02/04 10:24:52;;;;;;;14.40;13.02;;;9.10;99.90;;;;;;6271808;22;20077;-83
2022/02/04 10:27:20;;;;;;;15.13;12.52;;;9.20;99.90;;;;;;6274561;22;20530;-81
2022/02/04 10:29:57;;;;;;;13.15;11.93;;;9.30;99.90;;;;;;6273001;22;20019;-83
2022/02/04 10:32:42;;;;;;;14.20;12.70;;;9.30;99.90;;;;;;6247893;22;20020;-83
2022/02/04 10:35:36;;;;;;;13.15;11.95;;;9.30;99.90;;;;;;6247683;22;20518;-73
2022/02/04 10:38:18;;;;;;;13.20;11.85;;;9.30;99.90;;;;;;6273563;22;20019;-81
2022/02/04 10:44:03;;;;;;;12.65;11.40;;;9.50;99.90;;;;;;6249645;22;20487;-83
2022/02/04 10:46:45;;;;;;;14.95;12.82;;;9.50;99.90;;;;;;6251671;22;20015;-82
2022/02/04 11:02:22;;;;;;;14.82;10.80;;;9.40;99.90;;;;;;6272255;22;20100;-78
2022/02/04 11:05:15;;;;;;;11.30;10.10;;;9.40;99.90;;;;;;6248889;22;20710;-80
2022/02/04 11:55:11;;;;;;;7.20;5.45;;;9.90;99.90;;;;;;6270528;22;20019;-83
2022/02/04 11:57:42;;;;;;;8.48;5.57;;;10.00;99.90;;;;;;6244992;22;20078;-83
2022/02/04 12:00:21;;;;;;;7.70;5.68;;;10.00;99.90;;;;;;6247456;22;20015;-81
2022/02/04 12:02:53;;;;;;;8.27;6.30;;;9.90;99.90;;;;;;6248460;22;20321;-82
2022/02/04 12:05:19;;;;;;;6.20;4.82;;;9.90;99.90;;;;;;6273719;22;20023;-81
2022/02/04 12:07:47;;;;;;;7.40;5.43;;;9.90;99.90;;;;;;6247866;22;20019;-81
2022/02/04 12:10:16;;;;;;;6.22;4.32;;;10.00;99.90;;;;;;6246362;22;20350;-81
2022/02/04 12:15:29;;;;;;;7.18;5.43;;;10.10;99.90;;;;;;6273062;22;20019;-82
2022/02/04 12:17:56;;;;;;;5.78;4.60;;;10.10;99.90;;;;;;6245452;22;20015;-83
2022/02/04 12:20:47;;;;;;;9.68;4.85;;;10.10;99.90;;;;;;6272681;22;20015;-77
2022/02/04 12:23:43;;;;;;;6.53;4.50;;;10.00;99.90;;;;;;6272369;22;20384;-83
2022/02/04 12:26:09;;;;;;;9.63;4.88;;;10.00;99.90;;;;;;6245255;22;20447;-82
2022/02/04 12:28:55;;;;;;;5.63;4.88;;;9.90;99.90;;;;;;6246929;22;20019;-83
2022/02/04 12:31:26;;;;;;;8.60;4.88;;;9.80;99.90;;;;;;6246476;22;20027;-82
2022/02/04 12:33:58;;;;;;;9.88;4.78;;;9.80;99.90;;;;;;6245366;22;20025;-83
2022/02/04 12:36:35;;;;;;;8.18;4.97;;;9.80;99.90;;;;;;6244392;22;20019;-82
2022/02/04 12:39:15;;;;;;;6.00;4.75;;;9.70;99.90;;;;;;6243192;22;20077;-81
2022/02/04 12:41:42;;;;;;;6.97;4.43;;;9.80;99.90;;;;;;6241193;22;20092;-82
2022/02/04 12:44:18;;;;;;;6.78;4.30;;;9.70;99.90;;;;;;6234729;22;20463;-82
2022/02/04 12:46:46;;;;;;;4.82;3.70;;;9.70;99.90;;;;;;6217992;22;20375;-82
2022/02/04 12:49:17;;;;;;;6.28;3.97;;;9.70;99.90;;;;;;6243619;22;20015;-78
2022/02/04 12:54:32;;;;;;;6.03;4.97;;;9.70;99.90;;;;;;6245512;22;20024;-82
2022/02/04 13:10:35;;;;;;;7.28;5.80;;;9.40;99.90;;;;;;6269962;22;20106;-77
2022/02/04 13:13:04;;;;;;;6.43;5.45;;;9.30;99.90;;;;;;6270002;22;20051;-81
2022/02/04 13:15:33;;;;;;;7.88;6.35;;;9.20;99.90;;;;;;6244295;22;20027;-77
2022/02/04 13:18:06;;;;;;;10.45;7.20;;;8.90;99.90;;;;;;6269645;22;20098;-80
2022/02/04 13:20:33;;;;;;;8.82;6.90;;;8.80;99.90;;;;;;6244081;22;20019;-79
2022/02/04 13:23:06;;;;;;;8.73;7.60;;;8.70;99.90;;;;;;6244950;22;20015;-80
2022/02/04 13:25:34;;;;;;;9.52;8.52;;;8.60;99.90;;;;;;6245155;22;20020;-80
2022/02/04 13:28:18;;;;;;;10.85;9.38;;;8.50;99.90;;;;;;6244729;22;20474;-79
2022/02/04 13:31:01;;;;;;;13.25;10.32;;;8.40;99.90;;;;;;6244617;22;20019;-77
2022/02/04 13:33:43;;;;;;;11.07;9.65;;;8.30;99.90;;;;;;6244285;22;20023;-78
2022/02/04 13:39:19;;;;;;;12.40;11.20;;;8.20;99.90;;;;;;6243106;22;20048;-78
2022/02/04 13:54:36;;;;;;;15.27;13.75;;;8.00;99.90;;;;;;6245458;22;20023;-80
2022/02/04 14:00:18;;;;;;;3.58;1.73;;;7.80;99.90;;;;;;6272325;22;20055;-77
2022/02/04 14:02:50;;;;;;;5.75;1.65;;;7.30;99.90;;;;;;6245883;22;20470;-76
2022/02/04 14:05:28;;;;;;;3.97;1.00;;;6.80;99.90;;;;;;6246925;22;20282;-76
2022/02/04 14:08:06;;;;;;;3.78;1.70;;;6.30;99.90;;;;;;6248332;22;20094;-76
2022/02/04 14:10:42;;;;;;;5.47;1.40;;;5.90;99.90;;;;;;6247897;22;20015;-76
2022/02/04 14:13:11;;;;;;;3.15;0.90;;;5.60;99.90;;;;;;6274653;22;20085;-77
2022/02/04 14:15:38;;;;;;;3.57;0.70;;;5.30;99.90;;;;;;6248882;22;20502;-76
2022/02/04 14:18:09;;;;;;;3.40;1.00;;;5.20;99.90;;;;;;6274353;22;20076;-75
2022/02/04 14:20:40;;;;;;;2.35;1.20;;;5.00;99.90;;;;;;6249471;22;20025;-77
2022/02/04 14:23:08;;;;;;;1.97;1.00;;;4.80;99.90;;;;;;6274541;22;20037;-78
2022/02/04 14:25:55;;;;;;;1.77;0.70;;;4.70;99.90;;;;;;6242453;22;20019;-76
2022/02/04 14:28:29;;;;;;;2.57;0.90;;;4.60;99.90;;;;;;6269202;22;20340;-77
2022/02/04 14:31:03;;;;;;;4.57;1.93;;;4.40;99.90;;;;;;6243705;22;20023;-77
2022/02/04 14:52:55;;;;;;;1.43;0.90;;;3.60;99.90;;;;;;6246317;22;20330;-76
2022/02/04 15:01:05;;;;;;;1.10;0.70;;;3.40;99.90;;;;;;6245693;22;20020;-76
2022/02/04 15:03:34;;;;;;;1.30;0.60;;;3.40;99.90;;;;;;6268604;22;20023;-76
2022/02/04 15:06:27;;;;;;;1.97;1.00;;;3.40;99.90;;;;;;6242049;22;20485;-76
2022/02/04 15:08:55;;;;;;;2.17;1.20;;;3.30;99.90;;;;;;6267413;22;20437;-76
2022/02/04 15:11:28;;;;;;;2.73;1.40;;;3.10;99.90;;;;;;6267377;22;20054;-76
2022/02/04 15:13:55;;;;;;;2.37;0.90;;;3.30;99.90;;;;;;6218120;22;20020;-77
2022/02/04 15:16:21;;;;;;;1.93;1.10;;;3.20;99.90;;;;;;6241006;22;20456;-76
2022/02/04 15:18:47;;;;;;;1.30;0.90;;;3.20;99.90;;;;;;6191110;22;20019;-76
2022/02/04 15:21:17;;;;;;;2.47;1.00;;;3.20;99.90;;;;;;6266422;22;20023;-76
2022/02/04 15:23:50;;;;;;;2.03;1.02;;;3.20;99.90;;;;;;6240000;22;20561;-76
2022/02/04 15:26:21;;;;;;;1.77;0.70;;;3.20;99.90;;;;;;6241409;22;20475;-86
2022/02/04 15:28:52;;;;;;;1.07;0.50;;;3.30;99.90;;;;;;6267631;22;20024;-87
2022/02/04 15:33:52;;;;;;;1.20;1.00;;;3.30;99.90;;;;;;6242773;22;20330;-87
2022/02/04 15:36:24;;;;;;;1.93;1.00;;;3.30;99.90;;;;;;6240492;22;20113;-86
2022/02/04 15:38:51;;;;;;;2.60;1.20;;;3.30;99.90;;;;;;6217566;22;20019;-85
2022/02/04 15:41:18;;;;;;;2.20;1.20;;;3.30;99.90;;;;;;6216212;22;20126;-87
2022/02/04 15:43:49;;;;;;;3.17;1.70;;;3.40;99.90;;;;;;6241073;22;20091;-87
2022/02/04 15:51:58;;;;;;;1.80;1.50;;;3.30;99.90;;;;;;6242706;22;20023;-87
2022/02/04 16:04:51;;;;;;;2.60;1.90;;;3.30;99.90;;;;;;6263980;22;20035;-77
2022/02/04 16:07:19;;;;;;;4.20;2.40;;;3.30;99.90;;;;;;6213562;22;20400;-77
2022/02/04 16:09:51;;;;;;;2.97;2.30;;;3.30;99.90;;;;;;6239221;22;20020;-77
2022/02/04 16:12:34;;;;;;;3.40;2.33;;;3.30;99.90;;;;;;6238955;22;20038;-77
2022/02/04 16:15:20;;;;;;;3.10;2.07;;;3.30;99.90;;;;;;6238136;22;20023;-78
2022/02/04 16:17:55;;;;;;;4.87;2.97;;;3.30;99.90;;;;;;6238445;22;20352;-77
2022/02/04 16:20:38;;;;;;;4.60;2.23;;;3.30;99.90;;;;;;6264138;22;20015;-78
2022/02/04 16:23:46;;;;;;;6.47;2.20;;;3.30;99.90;;;;;;6217882;22;20043;-78
2022/02/04 16:28:41;;;;;;;4.17;2.00;;;3.40;99.90;;;;;;6266788;22;20131;-77
2022/02/04 16:31:14;;;;;;;4.90;1.70;;;3.50;99.90;;;;;;6216262;22;20011;-78
2022/02/04 16:33:43;;;;;;;5.57;1.47;;;3.50;99.90;;;;;;6243049;22;20370;-77
2022/02/04 16:36:15;;;;;;;6.50;1.53;;;3.70;99.90;;;;;;6242189;22;20365;-79
2022/02/04 16:38:44;;;;;;;5.13;1.33;;;3.70;99.90;;;;;;6243822;22;20078;-78
2022/02/04 16:41:13;;;;;;;5.37;1.20;;;3.70;99.90;;;;;;6243039;22;20088;-78
2022/02/04 16:43:39;;;;;;;6.03;1.23;;;3.70;99.90;;;;;;6243342;22;20026;-80
2022/02/04 16:46:07;;;;;;;7.63;1.77;;;3.70;99.90;;;;;;6242575;22;20020;-79
2022/02/04 16:48:34;;;;;;;4.00;0.90;;;3.80;99.90;;;;;;6243703;22;20475;-78
2022/02/04 16:51:00;;;;;;;5.57;1.20;;;3.80;99.90;;;;;;6243061;22;20012;-77
2022/02/04 16:53:27;;;;;;;6.60;1.40;;;3.80;99.90;;;;;;6244373;22;20050;-78
2022/02/04 16:55:54;;;;;;;6.70;1.57;;;3.80;99.90;;;;;;6193251;22;20047;-77
2022/02/04 16:58:22;;;;;;;5.63;1.40;;;3.90;99.90;;;;;;6242824;22;20016;-77
2022/02/04 17:00:47;;;;;;;5.67;1.20;;;3.80;99.90;;;;;;6267247;22;20279;-78
2022/02/04 17:03:13;;;;;;;5.73;1.00;;;3.80;99.90;;;;;;6241965;22;20253;-77
2022/02/04 17:08:12;;;;;;;6.40;1.03;;;3.90;99.90;;;;;;6267766;22;20034;-77
2022/02/04 17:10:42;;;;;;;4.97;0.97;;;3.90;99.90;;;;;;6242595;22;20012;-76
2022/02/04 17:13:09;;;;;;;5.15;0.85;;;3.80;99.90;;;;;;6217649;22;20015;-77
2022/02/04 17:15:37;;;;;;;8.20;1.03;;;3.80;99.90;;;;;;6240210;22;20019;-76
2022/02/04 17:18:06;;;;;;;6.17;1.13;;;3.80;99.90;;;;;;6214932;22;20091;-77
2022/02/04 17:20:33;;;;;;;3.50;0.80;;;3.90;99.90;;;;;;6266638;22;20050;-79
2022/02/04 17:23:03;;;;;;;6.00;1.10;;;3.80;99.90;;;;;;6240424;22;20090;-76
2022/02/04 17:25:34;;;;;;;3.28;1.02;;;3.80;99.90;;;;;;6243361;22;20069;-76
2022/02/04 17:28:00;;;;;;;3.60;0.83;;;3.80;99.90;;;;;;6270323;22;20019;-78
2022/02/04 17:30:26;;;;;;;6.13;1.40;;;3.80;99.90;;;;;;6243192;22;20019;-78
2022/02/04 17:32:53;;;;;;;2.47;0.67;;;3.80;99.90;;;;;;6218043;22;20482;-78
2022/02/04 17:35:26;;;;;;;3.97;0.80;;;3.60;99.90;;;;;;6218599;22;20019;-76
2022/02/04 17:37:58;;;;;;;4.00;0.93;;;3.40;99.90;;;;;;6269931;22;20019;-76
2022/02/04 17:40:28;;;;;;;6.63;2.23;;;3.30;99.90;;;;;;6247357;22;20047;-76
2022/02/04 17:42:55;;;;;;;6.43;1.55;;;3.20;99.90;;;;;;6222689;22;20015;-77
2022/02/04 17:45:22;;;;;;;7.23;2.03;;;3.10;99.90;;;;;;6248114;22;20050;-77
2022/02/04 17:47:56;;;;;;;5.50;1.47;;;3.10;99.90;;;;;;6273259;22;20023;-77
2022/02/04 17:50:33;;;;;;;5.57;1.20;;;3.10;99.90;;;;;;6248505;22;20320;-77
2022/02/04 17:53:06;;;;;;;5.73;1.23;;;3.10;99.90;;;;;;6225493;22;20098;-77
2022/02/04 17:55:40;;;;;;;9.13;1.60;;;3.10;99.90;;;;;;6247301;22;20025;-76
2022/02/04 17:58:24;;;;;;;6.07;1.27;;;3.10;99.90;;;;;;6225618;22;20019;-78
2022/02/04 18:08:31;;;;;;;9.73;1.40;;;3.20;99.90;;;;;;6254865;22;20030;-78
2022/02/04 18:11:01;;;;;;;8.07;2.03;;;3.20;99.90;;;;;;6275314;22;20118;-77
2022/02/04 18:13:31;;;;;;;8.90;1.95;;;3.20;99.90;;;;;;6249096;22;20015;-77
2022/02/04 18:16:00;;;;;;;8.77;1.80;;;3.30;99.90;;;;;;6276435;22;20347;-80
2022/02/04 18:18:30;;;;;;;10.03;1.83;;;3.30;99.90;;;;;;6224480;22;20099;-78
2022/02/04 18:20:56;;;;;;;9.95;2.13;;;3.30;99.90;;;;;;6250671;22;20015;-77
2022/02/04 18:23:22;;;;;;;12.67;3.00;;;3.30;99.90;;;;;;6224640;22;20153;-77
2022/02/04 18:25:52;;;;;;;13.13;2.90;;;3.30;99.90;;;;;;6273988;22;20030;-76
2022/02/04 18:28:20;;;;;;;12.38;2.63;;;3.40;99.90;;;;;;6218791;22;20027;-75
2022/02/04 18:30:46;;;;;;;14.67;3.23;;;3.40;99.90;;;;;;6269882;22;20012;-76
2022/02/04 18:33:13;;;;;;;12.53;3.10;;;3.40;99.90;;;;;;6244596;22;20016;-76
2022/02/04 18:35:41;;;;;;;9.07;2.40;;;3.50;99.90;;;;;;6269965;22;20015;-76
2022/02/04 18:38:30;;;;;;;11.67;3.00;;;3.60;99.90;;;;;;6244582;22;20396;-77
2022/02/04 18:43:43;;;;;;;15.03;2.87;;;3.70;99.90;;;;;;6243008;22;20540;-77
2022/02/04 18:46:35;;;;;;;14.03;3.37;;;3.60;99.90;;;;;;6202145;22;20123;-78
2022/02/04 18:49:13;;;;;;;12.27;2.97;;;3.60;99.90;;;;;;6269752;22;20027;-78
2022/02/04 18:59:19;;;;;;;11.57;3.43;;;3.50;99.90;;;;;;6217992;22;20031;-78
2022/02/04 19:01:47;;;;;;;17.53;4.70;;;3.50;99.90;;;;;;6268143;22;20020;-78
2022/02/04 19:04:17;;;;;;;14.17;4.40;;;3.60;99.90;;;;;;6269337;22;20011;-78
2022/02/04 19:06:48;;;;;;;19.30;4.75;;;3.60;99.90;;;;;;6218103;22;20107;-78
2022/02/04 19:09:14;;;;;;;18.67;5.17;;;3.60;99.90;;;;;;6242208;22;20039;-77
2022/02/04 19:11:46;;;;;;;20.63;4.83;;;3.60;99.90;;;;;;6241104;22;20496;-78
2022/02/04 19:19:44;;;;;;;15.57;4.00;;;3.80;99.90;;;;;;6267721;22;20078;-78
2022/02/04 19:24:44;;;;;;;14.77;4.50;;;3.90;99.90;;;;;;6241334;22;20456;-78
2022/02/04 19:27:10;;;;;;;19.57;4.33;;;3.90;99.90;;;;;;6240308;22;20496;-78
2022/02/04 19:29:43;;;;;;;16.40;4.47;;;3.90;99.90;;;;;;6216026;22;20022;-78
2022/02/04 19:32:09;;;;;;;18.70;4.03;;;4.00;99.90;;;;;;6218053;22;20016;-78
2022/02/04 19:34:35;;;;;;;13.40;3.10;;;3.90;99.90;;;;;;6216818;22;20012;-78
2022/02/04 19:37:04;;;;;;;18.20;3.53;;;3.90;99.90;;;;;;6217175;22;20020;-78
2022/02/04 19:39:30;;;;;;;12.60;3.90;;;3.90;99.90;;;;;;6217383;22;20070;-78
2022/02/04 19:42:04;;;;;;;16.53;3.03;;;4.00;99.90;;;;;;6243189;22;20034;-78
2022/02/04 19:44:32;;;;;;;19.77;3.73;;;3.80;99.90;;;;;;6242462;22;20023;-77
2022/02/04 19:47:02;;;;;;;13.67;3.37;;;3.80;99.90;;;;;;6242036;22;20445;-78
2022/02/04 19:49:38;;;;;;;;;;;3.80;99.90;;;;;;6216534;22;20582;-79
2022/02/04 20:25:10;;;;;;;11.10;2.67;;;3.70;99.90;;;;;;6224252;22;20423;-77
2022/02/04 20:27:41;;;;;;;13.50;3.10;;;3.70;99.90;;;;;;6215672;22;20023;-77
2022/02/04 20:30:07;;;;;;;;;;;3.70;99.90;;;;;;6243700;22;20444;-77
2022/02/04 20:32:33;;;;;;;15.57;3.50;;;3.70;99.90;;;;;;6242214;22;20251;-78
2022/02/04 20:34:59;;;;;;;15.10;3.33;;;3.80;99.90;;;;;;6241979;22;20016;-78
2022/02/04 20:37:25;;;;;;;18.33;3.87;;;3.80;99.90;;;;;;6243106;22;20019;-77
2022/02/04 20:39:58;;;;;;;14.17;3.83;;;3.70;99.90;;;;;;6216671;22;20023;-77
2022/02/04 20:42:27;;;;;;;18.40;4.60;;;3.80;99.90;;;;;;6241908;22;20134;-80
2022/02/04 20:44:56;;;;;;;17.27;4.70;;;3.80;99.90;;;;;;6240308;22;20482;-78
2022/02/04 20:47:22;;;;;;;20.03;4.17;;;3.80;99.90;;;;;;6190270;22;20337;-78
2022/02/04 20:49:55;;;;;;;17.03;4.33;;;3.80;99.90;;;;;;6240123;22;20020;-78